sensor_id;sensor_type;location;lat;lon;timestamp;P1;durP1;ratioP1;P2;durP2;ratioP2
7306;SDS011;3694;48.732;9.248;2023-04-08T00:00:12;21.10;;;17.83;;
7306;SDS011;3694;48.732;9.248;2023-04-08T00:02:38;21.40;;;17.23;;
7306;SDS011;3694;48.732;9.248;2023-04-08T00:05:04;19.67;;;17.33;;
7306;SDS011;3694;48.732;9.248;2023-04-08T00:07:30;19.83;;;17.13;;
7306;SDS011;3694;48.732;9.248;2023-04-08T00:09:56;21.20;;;18.10;;
7306;SDS011;3694;48.732;9.248;2023-04-08T00:12:21;20.70;;;18.00;;
7306;SDS011;3694;48.732;9.248;2023-04-08T00:14:47;23.77;;;18.27;;
7306;SDS011;3694;48.732;9.248;2023-04-08T00:17:12;20.57;;;16.80;;
7306;SDS011;3694;48.732;9.248;2023-04-08T00:19:38;21.73;;;18.37;;
7306;SDS011;3694;48.732;9.248;2023-04-08T00:22:03;20.60;;;16.57;;
7306;SDS011;3694;48.732;9.248;2023-04-08T00:24:29;22.07;;;17.23;;
7306;SDS011;3694;48.732;9.248;2023-04-08T00:26:55;23.23;;;17.53;;
7306;SDS011;3694;48.732;9.248;2023-04-08T00:29:21;20.20;;;17.80;;
7306;SDS011;3694;48.732;9.248;2023-04-08T00:31:46;20.53;;;17.00;;
7306;SDS011;3694;48.732;9.248;2023-04-08T00:34:12;18.80;;;16.80;;
7306;SDS011;3694;48.732;9.248;2023-04-08T00:36:38;21.47;;;17.90;;
7306;SDS011;3694;48.732;9.248;2023-04-08T00:39:04;20.93;;;16.83;;
7306;SDS011;3694;48.732;9.248;2023-04-08T00:41:30;21.30;;;17.30;;
7306;SDS011;3694;48.732;9.248;2023-04-08T00:43:57;22.17;;;17.97;;
7306;SDS011;3694;48.732;9.248;2023-04-08T00:46:23;22.23;;;17.87;;
7306;SDS011;3694;48.732;9.248;2023-04-08T00:48:50;22.00;;;17.47;;
7306;SDS011;3694;48.732;9.248;2023-04-08T00:51:16;20.43;;;17.97;;
7306;SDS011;3694;48.732;9.248;2023-04-08T00:53:42;21.37;;;18.23;;
7306;SDS011;3694;48.732;9.248;2023-04-08T00:56:08;20.27;;;17.47;;
7306;SDS011;3694;48.732;9.248;2023-04-08T00:58:33;22.43;;;18.73;;
7306;SDS011;3694;48.732;9.248;2023-04-08T01:01:02;20.53;;;17.97;;
7306;SDS011;3694;48.732;9.248;2023-04-08T01:03:56;21.23;;;18.13;;
7306;SDS011;3694;48.732;9.248;2023-04-08T01:06:38;21.63;;;18.30;;
7306;SDS011;3694;48.732;9.248;2023-04-08T01:09:29;21.17;;;18.23;;
7306;SDS011;3694;48.732;9.248;2023-04-08T01:11:59;21.10;;;18.23;;
7306;SDS011;3694;48.732;9.248;2023-04-08T01:14:30;21.97;;;18.57;;
7306;SDS011;3694;48.732;9.248;2023-04-08T01:17:00;20.67;;;17.43;;
7306;SDS011;3694;48.732;9.248;2023-04-08T01:19:28;20.57;;;17.83;;
7306;SDS011;3694;48.732;9.248;2023-04-08T01:22:00;20.97;;;18.60;;
7306;SDS011;3694;48.732;9.248;2023-04-08T01:24:32;19.83;;;17.73;;
7306;SDS011;3694;48.732;9.248;2023-04-08T01:27:03;18.23;;;15.97;;
7306;SDS011;3694;48.732;9.248;2023-04-08T01:29:30;20.07;;;17.77;;
7306;SDS011;3694;48.732;9.248;2023-04-08T01:31:58;20.83;;;16.33;;
7306;SDS011;3694;48.732;9.248;2023-04-08T01:34:25;19.13;;;17.00;;
7306;SDS011;3694;48.732;9.248;2023-04-08T01:36:52;18.90;;;16.70;;
7306;SDS011;3694;48.732;9.248;2023-04-08T01:39:19;19.70;;;17.17;;
7306;SDS011;3694;48.732;9.248;2023-04-08T01:41:45;20.43;;;16.20;;
7306;SDS011;3694;48.732;9.248;2023-04-08T01:44:12;19.03;;;16.27;;
7306;SDS011;3694;48.732;9.248;2023-04-08T01:46:39;20.23;;;17.20;;
7306;SDS011;3694;48.732;9.248;2023-04-08T01:49:06;15.03;;;13.17;;
7306;SDS011;3694;48.732;9.248;2023-04-08T01:51:33;17.70;;;15.20;;
7306;SDS011;3694;48.732;9.248;2023-04-08T01:54:00;17.37;;;15.50;;
7306;SDS011;3694;48.732;9.248;2023-04-08T01:56:26;17.60;;;15.80;;
7306;SDS011;3694;48.732;9.248;2023-04-08T01:58:54;17.40;;;15.60;;
7306;SDS011;3694;48.732;9.248;2023-04-08T02:01:24;15.13;;;13.53;;
7306;SDS011;3694;48.732;9.248;2023-04-08T02:03:53;16.17;;;14.10;;
7306;SDS011;3694;48.732;9.248;2023-04-08T02:06:21;18.30;;;13.53;;
7306;SDS011;3694;48.732;9.248;2023-04-08T02:08:48;16.17;;;14.00;;
7306;SDS011;3694;48.732;9.248;2023-04-08T02:11:14;15.43;;;13.63;;
7306;SDS011;3694;48.732;9.248;2023-04-08T02:13:39;16.50;;;14.73;;
7306;SDS011;3694;48.732;9.248;2023-04-08T02:16:09;17.93;;;14.93;;
7306;SDS011;3694;48.732;9.248;2023-04-08T02:18:42;18.17;;;15.57;;
7306;SDS011;3694;48.732;9.248;2023-04-08T02:21:16;17.57;;;15.43;;
7306;SDS011;3694;48.732;9.248;2023-04-08T02:23:47;18.30;;;16.37;;
7306;SDS011;3694;48.732;9.248;2023-04-08T02:26:15;19.27;;;16.10;;
7306;SDS011;3694;48.732;9.248;2023-04-08T02:28:42;17.13;;;15.07;;
7306;SDS011;3694;48.732;9.248;2023-04-08T02:31:09;17.80;;;15.90;;
7306;SDS011;3694;48.732;9.248;2023-04-08T02:33:38;17.70;;;14.90;;
7306;SDS011;3694;48.732;9.248;2023-04-08T02:36:05;16.73;;;14.80;;
7306;SDS011;3694;48.732;9.248;2023-04-08T02:38:31;17.07;;;15.10;;
7306;SDS011;3694;48.732;9.248;2023-04-08T02:40:57;18.43;;;15.63;;
7306;SDS011;3694;48.732;9.248;2023-04-08T02:43:23;17.97;;;14.80;;
7306;SDS011;3694;48.732;9.248;2023-04-08T02:45:55;17.80;;;14.73;;
7306;SDS011;3694;48.732;9.248;2023-04-08T02:48:21;19.93;;;15.77;;
7306;SDS011;3694;48.732;9.248;2023-04-08T02:50:47;18.20;;;15.77;;
7306;SDS011;3694;48.732;9.248;2023-04-08T02:53:12;21.30;;;15.40;;
7306;SDS011;3694;48.732;9.248;2023-04-08T02:55:38;20.93;;;16.43;;
7306;SDS011;3694;48.732;9.248;2023-04-08T02:58:04;20.57;;;16.40;;
7306;SDS011;3694;48.732;9.248;2023-04-08T03:00:29;21.20;;;16.93;;
7306;SDS011;3694;48.732;9.248;2023-04-08T03:02:55;20.17;;;16.00;;
7306;SDS011;3694;48.732;9.248;2023-04-08T03:05:21;18.77;;;16.17;;
7306;SDS011;3694;48.732;9.248;2023-04-08T03:07:46;21.53;;;17.07;;
7306;SDS011;3694;48.732;9.248;2023-04-08T03:10:12;20.20;;;17.13;;
7306;SDS011;3694;48.732;9.248;2023-04-08T03:12:37;22.70;;;17.63;;
7306;SDS011;3694;48.732;9.248;2023-04-08T03:15:03;21.30;;;16.97;;
7306;SDS011;3694;48.732;9.248;2023-04-08T03:17:29;21.63;;;17.10;;
7306;SDS011;3694;48.732;9.248;2023-04-08T03:19:57;20.73;;;16.27;;
7306;SDS011;3694;48.732;9.248;2023-04-08T03:22:23;21.33;;;16.33;;
7306;SDS011;3694;48.732;9.248;2023-04-08T03:24:48;20.10;;;15.37;;
7306;SDS011;3694;48.732;9.248;2023-04-08T03:27:14;22.33;;;16.47;;
7306;SDS011;3694;48.732;9.248;2023-04-08T03:29:39;22.13;;;16.97;;
7306;SDS011;3694;48.732;9.248;2023-04-08T03:32:05;20.30;;;15.20;;
7306;SDS011;3694;48.732;9.248;2023-04-08T03:34:32;22.10;;;16.70;;
7306;SDS011;3694;48.732;9.248;2023-04-08T03:36:58;21.20;;;15.70;;
7306;SDS011;3694;48.732;9.248;2023-04-08T03:39:23;20.37;;;15.87;;
7306;SDS011;3694;48.732;9.248;2023-04-08T03:41:49;21.00;;;16.67;;
7306;SDS011;3694;48.732;9.248;2023-04-08T03:44:15;21.83;;;16.30;;
7306;SDS011;3694;48.732;9.248;2023-04-08T03:46:40;21.10;;;16.80;;
7306;SDS011;3694;48.732;9.248;2023-04-08T03:49:06;21.20;;;15.53;;
7306;SDS011;3694;48.732;9.248;2023-04-08T03:51:31;21.97;;;16.00;;
7306;SDS011;3694;48.732;9.248;2023-04-08T03:53:57;25.63;;;17.43;;
7306;SDS011;3694;48.732;9.248;2023-04-08T03:56:22;24.40;;;17.90;;
7306;SDS011;3694;48.732;9.248;2023-04-08T03:58:49;24.47;;;18.20;;
7306;SDS011;3694;48.732;9.248;2023-04-08T04:01:15;21.23;;;16.90;;
7306;SDS011;3694;48.732;9.248;2023-04-08T04:03:40;24.10;;;18.17;;
7306;SDS011;3694;48.732;9.248;2023-04-08T04:06:06;25.30;;;18.00;;
7306;SDS011;3694;48.732;9.248;2023-04-08T04:08:31;22.63;;;16.90;;
7306;SDS011;3694;48.732;9.248;2023-04-08T04:10:57;26.23;;;17.53;;
7306;SDS011;3694;48.732;9.248;2023-04-08T04:13:23;25.20;;;17.03;;
7306;SDS011;3694;48.732;9.248;2023-04-08T04:15:49;23.20;;;15.97;;
7306;SDS011;3694;48.732;9.248;2023-04-08T04:18:14;21.87;;;16.70;;
7306;SDS011;3694;48.732;9.248;2023-04-08T04:20:40;22.30;;;16.97;;
7306;SDS011;3694;48.732;9.248;2023-04-08T04:23:07;23.17;;;17.23;;
7306;SDS011;3694;48.732;9.248;2023-04-08T04:25:33;23.43;;;17.20;;
7306;SDS011;3694;48.732;9.248;2023-04-08T04:27:58;21.83;;;16.00;;
7306;SDS011;3694;48.732;9.248;2023-04-08T04:30:24;22.17;;;16.70;;
7306;SDS011;3694;48.732;9.248;2023-04-08T04:32:49;21.47;;;16.60;;
7306;SDS011;3694;48.732;9.248;2023-04-08T04:35:15;22.83;;;16.33;;
7306;SDS011;3694;48.732;9.248;2023-04-08T04:37:41;21.57;;;15.83;;
7306;SDS011;3694;48.732;9.248;2023-04-08T04:40:06;25.10;;;17.60;;
7306;SDS011;3694;48.732;9.248;2023-04-08T04:42:32;21.73;;;16.50;;
7306;SDS011;3694;48.732;9.248;2023-04-08T04:44:58;24.77;;;17.90;;
7306;SDS011;3694;48.732;9.248;2023-04-08T04:47:24;22.27;;;17.70;;
7306;SDS011;3694;48.732;9.248;2023-04-08T04:49:50;22.80;;;17.80;;
7306;SDS011;3694;48.732;9.248;2023-04-08T04:52:15;24.53;;;18.47;;
7306;SDS011;3694;48.732;9.248;2023-04-08T04:54:41;23.20;;;17.90;;
7306;SDS011;3694;48.732;9.248;2023-04-08T04:57:06;26.07;;;18.50;;
7306;SDS011;3694;48.732;9.248;2023-04-08T04:59:32;21.57;;;16.90;;
7306;SDS011;3694;48.732;9.248;2023-04-08T05:01:57;25.87;;;18.93;;
7306;SDS011;3694;48.732;9.248;2023-04-08T05:04:23;23.33;;;18.10;;
7306;SDS011;3694;48.732;9.248;2023-04-08T05:06:49;25.30;;;18.47;;
7306;SDS011;3694;48.732;9.248;2023-04-08T05:09:15;23.17;;;17.77;;
7306;SDS011;3694;48.732;9.248;2023-04-08T05:11:40;24.37;;;18.53;;
7306;SDS011;3694;48.732;9.248;2023-04-08T05:14:06;24.53;;;18.33;;
7306;SDS011;3694;48.732;9.248;2023-04-08T05:16:32;24.20;;;18.77;;
7306;SDS011;3694;48.732;9.248;2023-04-08T05:18:58;23.57;;;19.37;;
7306;SDS011;3694;48.732;9.248;2023-04-08T05:21:23;28.07;;;21.10;;
7306;SDS011;3694;48.732;9.248;2023-04-08T05:23:50;28.57;;;21.30;;
7306;SDS011;3694;48.732;9.248;2023-04-08T05:26:17;24.07;;;18.93;;
7306;SDS011;3694;48.732;9.248;2023-04-08T05:28:43;26.23;;;20.93;;
7306;SDS011;3694;48.732;9.248;2023-04-08T05:31:09;26.87;;;21.03;;
7306;SDS011;3694;48.732;9.248;2023-04-08T05:33:35;24.60;;;19.87;;
7306;SDS011;3694;48.732;9.248;2023-04-08T05:36:01;26.80;;;21.60;;
7306;SDS011;3694;48.732;9.248;2023-04-08T05:38:26;26.57;;;21.03;;
7306;SDS011;3694;48.732;9.248;2023-04-08T05:40:52;26.43;;;20.37;;
7306;SDS011;3694;48.732;9.248;2023-04-08T05:43:18;26.07;;;21.80;;
7306;SDS011;3694;48.732;9.248;2023-04-08T05:45:43;31.57;;;22.70;;
7306;SDS011;3694;48.732;9.248;2023-04-08T05:48:09;28.30;;;21.97;;
7306;SDS011;3694;48.732;9.248;2023-04-08T05:50:35;26.43;;;21.10;;
7306;SDS011;3694;48.732;9.248;2023-04-08T05:53:00;26.27;;;21.73;;
7306;SDS011;3694;48.732;9.248;2023-04-08T05:55:26;25.60;;;20.67;;
7306;SDS011;3694;48.732;9.248;2023-04-08T05:57:51;27.00;;;21.60;;
7306;SDS011;3694;48.732;9.248;2023-04-08T06:00:17;26.03;;;21.27;;
7306;SDS011;3694;48.732;9.248;2023-04-08T06:02:42;24.33;;;21.07;;
7306;SDS011;3694;48.732;9.248;2023-04-08T06:05:08;26.13;;;21.47;;
7306;SDS011;3694;48.732;9.248;2023-04-08T06:07:33;25.07;;;20.83;;
7306;SDS011;3694;48.732;9.248;2023-04-08T06:09:59;20.67;;;16.70;;
7306;SDS011;3694;48.732;9.248;2023-04-08T06:12:25;25.17;;;20.07;;
7306;SDS011;3694;48.732;9.248;2023-04-08T06:14:53;24.60;;;19.63;;
7306;SDS011;3694;48.732;9.248;2023-04-08T06:17:20;25.20;;;21.10;;
7306;SDS011;3694;48.732;9.248;2023-04-08T06:19:45;24.37;;;19.73;;
7306;SDS011;3694;48.732;9.248;2023-04-08T06:22:11;21.07;;;17.40;;
7306;SDS011;3694;48.732;9.248;2023-04-08T06:24:36;22.10;;;18.43;;
7306;SDS011;3694;48.732;9.248;2023-04-08T06:27:02;22.50;;;19.07;;
7306;SDS011;3694;48.732;9.248;2023-04-08T06:29:27;24.37;;;20.47;;
7306;SDS011;3694;48.732;9.248;2023-04-08T06:31:53;23.97;;;20.27;;
7306;SDS011;3694;48.732;9.248;2023-04-08T06:34:19;23.60;;;20.00;;
7306;SDS011;3694;48.732;9.248;2023-04-08T06:36:45;21.07;;;17.80;;
7306;SDS011;3694;48.732;9.248;2023-04-08T06:39:11;23.27;;;18.87;;
7306;SDS011;3694;48.732;9.248;2023-04-08T06:41:37;22.23;;;18.33;;
7306;SDS011;3694;48.732;9.248;2023-04-08T06:44:02;22.70;;;18.37;;
7306;SDS011;3694;48.732;9.248;2023-04-08T06:46:28;22.20;;;18.60;;
7306;SDS011;3694;48.732;9.248;2023-04-08T06:48:53;19.80;;;17.27;;
7306;SDS011;3694;48.732;9.248;2023-04-08T06:51:19;19.27;;;17.03;;
7306;SDS011;3694;48.732;9.248;2023-04-08T06:53:45;22.13;;;17.40;;
7306;SDS011;3694;48.732;9.248;2023-04-08T06:56:10;20.37;;;17.60;;
7306;SDS011;3694;48.732;9.248;2023-04-08T06:58:36;17.97;;;16.07;;
7306;SDS011;3694;48.732;9.248;2023-04-08T07:01:01;17.87;;;15.97;;
7306;SDS011;3694;48.732;9.248;2023-04-08T07:03:27;17.03;;;15.33;;
7306;SDS011;3694;48.732;9.248;2023-04-08T07:05:52;17.30;;;15.03;;
7306;SDS011;3694;48.732;9.248;2023-04-08T07:08:18;17.40;;;15.60;;
7306;SDS011;3694;48.732;9.248;2023-04-08T07:10:44;15.73;;;14.03;;
7306;SDS011;3694;48.732;9.248;2023-04-08T07:13:09;18.50;;;16.53;;
7306;SDS011;3694;48.732;9.248;2023-04-08T07:15:35;17.30;;;15.37;;
7306;SDS011;3694;48.732;9.248;2023-04-08T07:18:01;17.27;;;15.50;;
7306;SDS011;3694;48.732;9.248;2023-04-08T07:20:28;17.83;;;14.27;;
7306;SDS011;3694;48.732;9.248;2023-04-08T07:22:54;17.67;;;15.80;;
7306;SDS011;3694;48.732;9.248;2023-04-08T07:25:19;17.43;;;15.73;;
7306;SDS011;3694;48.732;9.248;2023-04-08T07:27:45;16.87;;;15.10;;
7306;SDS011;3694;48.732;9.248;2023-04-08T07:30:11;15.13;;;13.33;;
7306;SDS011;3694;48.732;9.248;2023-04-08T07:32:36;16.10;;;14.33;;
7306;SDS011;3694;48.732;9.248;2023-04-08T07:35:02;16.43;;;14.67;;
7306;SDS011;3694;48.732;9.248;2023-04-08T07:37:28;18.80;;;16.90;;
7306;SDS011;3694;48.732;9.248;2023-04-08T07:39:53;16.13;;;14.43;;
7306;SDS011;3694;48.732;9.248;2023-04-08T07:42:19;14.57;;;13.00;;
7306;SDS011;3694;48.732;9.248;2023-04-08T07:44:45;15.53;;;13.93;;
7306;SDS011;3694;48.732;9.248;2023-04-08T07:47:11;14.73;;;13.23;;
7306;SDS011;3694;48.732;9.248;2023-04-08T07:49:37;13.37;;;12.07;;
7306;SDS011;3694;48.732;9.248;2023-04-08T07:52:03;13.30;;;11.90;;
7306;SDS011;3694;48.732;9.248;2023-04-08T07:54:30;14.67;;;13.27;;
7306;SDS011;3694;48.732;9.248;2023-04-08T07:56:57;14.20;;;12.70;;
7306;SDS011;3694;48.732;9.248;2023-04-08T07:59:23;14.00;;;12.50;;
7306;SDS011;3694;48.732;9.248;2023-04-08T08:01:49;15.20;;;13.47;;
7306;SDS011;3694;48.732;9.248;2023-04-08T08:04:14;13.77;;;12.33;;
7306;SDS011;3694;48.732;9.248;2023-04-08T08:06:40;13.47;;;12.17;;
7306;SDS011;3694;48.732;9.248;2023-04-08T08:09:05;13.50;;;12.20;;
7306;SDS011;3694;48.732;9.248;2023-04-08T08:11:31;13.30;;;11.93;;
7306;SDS011;3694;48.732;9.248;2023-04-08T08:13:57;12.27;;;10.97;;
7306;SDS011;3694;48.732;9.248;2023-04-08T08:16:22;12.80;;;11.50;;
7306;SDS011;3694;48.732;9.248;2023-04-08T08:18:51;12.23;;;11.00;;
7306;SDS011;3694;48.732;9.248;2023-04-08T08:21:17;13.53;;;12.13;;
7306;SDS011;3694;48.732;9.248;2023-04-08T08:23:42;12.73;;;11.17;;
7306;SDS011;3694;48.732;9.248;2023-04-08T08:26:08;12.67;;;11.47;;
7306;SDS011;3694;48.732;9.248;2023-04-08T08:28:34;13.27;;;11.90;;
7306;SDS011;3694;48.732;9.248;2023-04-08T08:31:00;14.23;;;12.73;;
7306;SDS011;3694;48.732;9.248;2023-04-08T08:33:27;13.07;;;11.83;;
7306;SDS011;3694;48.732;9.248;2023-04-08T08:35:52;12.67;;;11.40;;
7306;SDS011;3694;48.732;9.248;2023-04-08T08:38:19;10.20;;;9.03;;
7306;SDS011;3694;48.732;9.248;2023-04-08T08:40:44;13.10;;;11.80;;
7306;SDS011;3694;48.732;9.248;2023-04-08T08:43:10;10.33;;;9.33;;
7306;SDS011;3694;48.732;9.248;2023-04-08T08:45:39;13.60;;;12.30;;
7306;SDS011;3694;48.732;9.248;2023-04-08T08:48:06;12.57;;;11.33;;
7306;SDS011;3694;48.732;9.248;2023-04-08T08:50:32;13.07;;;11.87;;
7306;SDS011;3694;48.732;9.248;2023-04-08T08:52:58;13.50;;;12.10;;
7306;SDS011;3694;48.732;9.248;2023-04-08T08:55:24;13.10;;;11.20;;
7306;SDS011;3694;48.732;9.248;2023-04-08T08:57:49;12.17;;;10.77;;
7306;SDS011;3694;48.732;9.248;2023-04-08T09:00:15;13.23;;;11.93;;
7306;SDS011;3694;48.732;9.248;2023-04-08T09:02:41;12.63;;;11.43;;
7306;SDS011;3694;48.732;9.248;2023-04-08T09:05:07;13.50;;;12.10;;
7306;SDS011;3694;48.732;9.248;2023-04-08T09:07:37;12.50;;;11.30;;
7306;SDS011;3694;48.732;9.248;2023-04-08T09:10:05;13.90;;;12.50;;
7306;SDS011;3694;48.732;9.248;2023-04-08T09:12:31;12.50;;;11.37;;
7306;SDS011;3694;48.732;9.248;2023-04-08T09:15:04;12.43;;;11.23;;
7306;SDS011;3694;48.732;9.248;2023-04-08T09:17:35;12.20;;;10.83;;
7306;SDS011;3694;48.732;9.248;2023-04-08T09:20:08;12.57;;;11.37;;
7306;SDS011;3694;48.732;9.248;2023-04-08T09:22:58;12.93;;;11.73;;
7306;SDS011;3694;48.732;9.248;2023-04-08T09:25:26;12.97;;;11.67;;
7306;SDS011;3694;48.732;9.248;2023-04-08T09:27:52;11.47;;;10.37;;
7306;SDS011;3694;48.732;9.248;2023-04-08T09:30:20;12.03;;;10.93;;
7306;SDS011;3694;48.732;9.248;2023-04-08T09:32:51;12.57;;;11.37;;
7306;SDS011;3694;48.732;9.248;2023-04-08T09:35:18;11.63;;;10.53;;
7306;SDS011;3694;48.732;9.248;2023-04-08T09:37:45;12.07;;;10.77;;
7306;SDS011;3694;48.732;9.248;2023-04-08T09:40:11;12.10;;;11.00;;
7306;SDS011;3694;48.732;9.248;2023-04-08T09:42:38;12.00;;;10.87;;
7306;SDS011;3694;48.732;9.248;2023-04-08T09:45:05;12.13;;;10.93;;
7306;SDS011;3694;48.732;9.248;2023-04-08T09:47:35;12.37;;;11.17;;
7306;SDS011;3694;48.732;9.248;2023-04-08T09:50:08;12.17;;;10.90;;
7306;SDS011;3694;48.732;9.248;2023-04-08T09:52:43;11.97;;;10.77;;
7306;SDS011;3694;48.732;9.248;2023-04-08T09:55:11;11.87;;;10.60;;
7306;SDS011;3694;48.732;9.248;2023-04-08T09:57:51;11.63;;;10.43;;
7306;SDS011;3694;48.732;9.248;2023-04-08T10:00:31;12.33;;;11.13;;
7306;SDS011;3694;48.732;9.248;2023-04-08T10:05:37;12.10;;;10.90;;
7306;SDS011;3694;48.732;9.248;2023-04-08T10:08:05;11.83;;;10.73;;
7306;SDS011;3694;48.732;9.248;2023-04-08T10:10:32;11.67;;;10.63;;
7306;SDS011;3694;48.732;9.248;2023-04-08T10:13:00;14.07;;;11.00;;
7306;SDS011;3694;48.732;9.248;2023-04-08T10:15:27;11.80;;;10.67;;
7306;SDS011;3694;48.732;9.248;2023-04-08T10:18:39;11.53;;;10.43;;
7306;SDS011;3694;48.732;9.248;2023-04-08T10:20:43;10.87;;;9.87;;
7306;SDS011;3694;48.732;9.248;2023-04-08T10:23:16;12.13;;;10.83;;
7306;SDS011;3694;48.732;9.248;2023-04-08T10:25:42;12.27;;;11.07;;
7306;SDS011;3694;48.732;9.248;2023-04-08T10:30:47;12.13;;;10.93;;
7306;SDS011;3694;48.732;9.248;2023-04-08T10:36:10;12.83;;;11.53;;
7306;SDS011;3694;48.732;9.248;2023-04-08T10:38:40;8.80;;;7.10;;
7306;SDS011;3694;48.732;9.248;2023-04-08T10:41:06;12.50;;;11.30;;
7306;SDS011;3694;48.732;9.248;2023-04-08T10:43:34;12.00;;;10.90;;
7306;SDS011;3694;48.732;9.248;2023-04-08T10:46:00;12.63;;;11.43;;
7306;SDS011;3694;48.732;9.248;2023-04-08T10:48:26;11.50;;;10.40;;
7306;SDS011;3694;48.732;9.248;2023-04-08T10:50:54;12.43;;;11.00;;
7306;SDS011;3694;48.732;9.248;2023-04-08T10:55:53;12.47;;;11.17;;
7306;SDS011;3694;48.732;9.248;2023-04-08T10:58:19;12.23;;;11.03;;
7306;SDS011;3694;48.732;9.248;2023-04-08T11:00:45;11.90;;;10.80;;
7306;SDS011;3694;48.732;9.248;2023-04-08T11:03:10;9.73;;;8.73;;
7306;SDS011;3694;48.732;9.248;2023-04-08T11:05:37;12.37;;;11.23;;
7306;SDS011;3694;48.732;9.248;2023-04-08T11:08:03;10.83;;;9.73;;
7306;SDS011;3694;48.732;9.248;2023-04-08T11:10:29;12.03;;;10.00;;
7306;SDS011;3694;48.732;9.248;2023-04-08T11:12:56;14.07;;;11.33;;
7306;SDS011;3694;48.732;9.248;2023-04-08T11:15:25;12.60;;;11.37;;
7306;SDS011;3694;48.732;9.248;2023-04-08T11:17:52;12.23;;;10.93;;
7306;SDS011;3694;48.732;9.248;2023-04-08T11:20:19;11.37;;;10.27;;
7306;SDS011;3694;48.732;9.248;2023-04-08T11:22:46;12.50;;;11.23;;
7306;SDS011;3694;48.732;9.248;2023-04-08T11:25:11;9.83;;;8.83;;
7306;SDS011;3694;48.732;9.248;2023-04-08T11:27:37;11.20;;;10.07;;
7306;SDS011;3694;48.732;9.248;2023-04-08T11:30:03;11.20;;;10.10;;
7306;SDS011;3694;48.732;9.248;2023-04-08T11:32:30;11.37;;;10.30;;
7306;SDS011;3694;48.732;9.248;2023-04-08T11:35:00;12.80;;;9.40;;
7306;SDS011;3694;48.732;9.248;2023-04-08T11:37:38;10.93;;;9.80;;
7306;SDS011;3694;48.732;9.248;2023-04-08T11:40:11;10.13;;;9.17;;
7306;SDS011;3694;48.732;9.248;2023-04-08T11:42:37;9.73;;;8.83;;
7306;SDS011;3694;48.732;9.248;2023-04-08T11:45:13;9.73;;;8.83;;
7306;SDS011;3694;48.732;9.248;2023-04-08T11:47:40;11.10;;;10.00;;
7306;SDS011;3694;48.732;9.248;2023-04-08T11:50:06;10.30;;;8.73;;
7306;SDS011;3694;48.732;9.248;2023-04-08T11:52:45;10.03;;;9.03;;
7306;SDS011;3694;48.732;9.248;2023-04-08T11:55:24;9.87;;;8.87;;
7306;SDS011;3694;48.732;9.248;2023-04-08T11:57:55;11.30;;;9.90;;
7306;SDS011;3694;48.732;9.248;2023-04-08T12:00:22;9.83;;;8.93;;
7306;SDS011;3694;48.732;9.248;2023-04-08T12:02:48;11.37;;;10.27;;
7306;SDS011;3694;48.732;9.248;2023-04-08T12:05:16;9.97;;;9.07;;
7306;SDS011;3694;48.732;9.248;2023-04-08T12:07:42;10.47;;;9.33;;
7306;SDS011;3694;48.732;9.248;2023-04-08T12:10:09;10.33;;;9.30;;
7306;SDS011;3694;48.732;9.248;2023-04-08T12:12:35;10.40;;;9.40;;
7306;SDS011;3694;48.732;9.248;2023-04-08T12:15:01;10.90;;;9.90;;
7306;SDS011;3694;48.732;9.248;2023-04-08T12:17:27;11.17;;;10.00;;
7306;SDS011;3694;48.732;9.248;2023-04-08T12:19:52;9.83;;;8.93;;
7306;SDS011;3694;48.732;9.248;2023-04-08T12:22:18;11.63;;;10.43;;
7306;SDS011;3694;48.732;9.248;2023-04-08T12:24:43;10.17;;;9.20;;
7306;SDS011;3694;48.732;9.248;2023-04-08T12:27:09;11.10;;;9.43;;
7306;SDS011;3694;48.732;9.248;2023-04-08T12:29:35;11.60;;;10.50;;
7306;SDS011;3694;48.732;9.248;2023-04-08T12:32:00;10.57;;;9.57;;
7306;SDS011;3694;48.732;9.248;2023-04-08T12:34:28;9.30;;;8.37;;
7306;SDS011;3694;48.732;9.248;2023-04-08T12:36:53;12.03;;;10.83;;
7306;SDS011;3694;48.732;9.248;2023-04-08T12:39:20;10.40;;;9.10;;
7306;SDS011;3694;48.732;9.248;2023-04-08T12:41:46;10.67;;;9.67;;
7306;SDS011;3694;48.732;9.248;2023-04-08T12:44:11;10.93;;;9.77;;
7306;SDS011;3694;48.732;9.248;2023-04-08T12:46:37;11.57;;;10.40;;
7306;SDS011;3694;48.732;9.248;2023-04-08T12:49:03;11.10;;;10.03;;
7306;SDS011;3694;48.732;9.248;2023-04-08T12:51:28;9.97;;;8.97;;
7306;SDS011;3694;48.732;9.248;2023-04-08T12:53:55;9.67;;;8.77;;
7306;SDS011;3694;48.732;9.248;2023-04-08T12:56:20;10.23;;;9.20;;
7306;SDS011;3694;48.732;9.248;2023-04-08T12:58:46;10.43;;;9.33;;
7306;SDS011;3694;48.732;9.248;2023-04-08T13:01:12;9.93;;;9.00;;
7306;SDS011;3694;48.732;9.248;2023-04-08T13:03:38;9.73;;;8.83;;
7306;SDS011;3694;48.732;9.248;2023-04-08T13:06:03;11.30;;;10.03;;
7306;SDS011;3694;48.732;9.248;2023-04-08T13:08:29;10.60;;;9.60;;
7306;SDS011;3694;48.732;9.248;2023-04-08T13:10:55;11.03;;;9.60;;
7306;SDS011;3694;48.732;9.248;2023-04-08T13:13:20;10.23;;;9.20;;
7306;SDS011;3694;48.732;9.248;2023-04-08T13:15:46;10.73;;;9.73;;
7306;SDS011;3694;48.732;9.248;2023-04-08T13:18:12;10.17;;;9.17;;
7306;SDS011;3694;48.732;9.248;2023-04-08T13:20:38;10.50;;;9.40;;
7306;SDS011;3694;48.732;9.248;2023-04-08T13:23:03;10.50;;;9.50;;
7306;SDS011;3694;48.732;9.248;2023-04-08T13:25:29;10.83;;;9.83;;
7306;SDS011;3694;48.732;9.248;2023-04-08T13:27:55;10.93;;;9.83;;
7306;SDS011;3694;48.732;9.248;2023-04-08T13:30:21;10.60;;;9.53;;
7306;SDS011;3694;48.732;9.248;2023-04-08T13:32:46;10.10;;;9.20;;
7306;SDS011;3694;48.732;9.248;2023-04-08T13:35:12;10.80;;;9.80;;
7306;SDS011;3694;48.732;9.248;2023-04-08T13:37:38;10.53;;;9.43;;
7306;SDS011;3694;48.732;9.248;2023-04-08T13:40:04;10.47;;;9.47;;
7306;SDS011;3694;48.732;9.248;2023-04-08T13:42:30;10.73;;;9.73;;
7306;SDS011;3694;48.732;9.248;2023-04-08T13:44:56;11.07;;;9.70;;
7306;SDS011;3694;48.732;9.248;2023-04-08T13:47:22;10.90;;;9.80;;
7306;SDS011;3694;48.732;9.248;2023-04-08T13:49:48;11.33;;;9.93;;
7306;SDS011;3694;48.732;9.248;2023-04-08T13:52:14;10.63;;;9.63;;
7306;SDS011;3694;48.732;9.248;2023-04-08T13:54:40;11.17;;;9.97;;
7306;SDS011;3694;48.732;9.248;2023-04-08T13:57:05;10.87;;;9.77;;
7306;SDS011;3694;48.732;9.248;2023-04-08T13:59:32;10.60;;;9.60;;
7306;SDS011;3694;48.732;9.248;2023-04-08T14:01:57;11.17;;;9.20;;
7306;SDS011;3694;48.732;9.248;2023-04-08T14:04:23;11.00;;;9.90;;
7306;SDS011;3694;48.732;9.248;2023-04-08T14:06:49;10.47;;;9.30;;
7306;SDS011;3694;48.732;9.248;2023-04-08T14:09:19;10.03;;;9.03;;
7306;SDS011;3694;48.732;9.248;2023-04-08T14:11:45;10.83;;;9.73;;
7306;SDS011;3694;48.732;9.248;2023-04-08T14:14:11;12.10;;;10.90;;
7306;SDS011;3694;48.732;9.248;2023-04-08T14:16:36;11.07;;;10.07;;
7306;SDS011;3694;48.732;9.248;2023-04-08T14:19:02;10.93;;;9.97;;
7306;SDS011;3694;48.732;9.248;2023-04-08T14:21:28;11.03;;;9.97;;
7306;SDS011;3694;48.732;9.248;2023-04-08T14:23:55;11.07;;;9.97;;
7306;SDS011;3694;48.732;9.248;2023-04-08T14:26:21;10.30;;;9.40;;
7306;SDS011;3694;48.732;9.248;2023-04-08T14:28:47;10.63;;;9.53;;
7306;SDS011;3694;48.732;9.248;2023-04-08T14:31:13;11.17;;;10.07;;
7306;SDS011;3694;48.732;9.248;2023-04-08T14:33:39;10.23;;;9.27;;
7306;SDS011;3694;48.732;9.248;2023-04-08T14:36:06;10.50;;;9.50;;
7306;SDS011;3694;48.732;9.248;2023-04-08T14:38:32;11.27;;;10.10;;
7306;SDS011;3694;48.732;9.248;2023-04-08T14:40:58;11.00;;;9.47;;
7306;SDS011;3694;48.732;9.248;2023-04-08T14:43:23;10.87;;;9.87;;
7306;SDS011;3694;48.732;9.248;2023-04-08T14:45:49;10.63;;;9.63;;
7306;SDS011;3694;48.732;9.248;2023-04-08T14:48:17;11.50;;;10.40;;
7306;SDS011;3694;48.732;9.248;2023-04-08T14:50:43;11.07;;;10.07;;
7306;SDS011;3694;48.732;9.248;2023-04-08T14:53:09;10.00;;;9.00;;
7306;SDS011;3694;48.732;9.248;2023-04-08T14:55:35;9.17;;;8.27;;
7306;SDS011;3694;48.732;9.248;2023-04-08T14:58:01;9.13;;;8.20;;